Time;durP1;ratioP1;P1;durP2;ratioP2;P2;SDS_P1;SDS_P2;PMS_P1;PMS_P2;Temp;Humidity;BMP_temperature;BMP_pressure;BME280_temperature;BME280_humidity;BME280_pressure;Samples;Min_cycle;Max_cycle;Signal;HPM_P1;HPM_P2
2023/04/24 11:06:36;;;;;;;8.90;2.92;;;10.40;99.90;;;;;;5088294;28;20500;-63
2023/04/24 11:09:07;;;;;;;7.25;2.88;;;10.40;99.90;;;;;;5086707;28;20030;-63
2023/04/24 11:11:33;;;;;;;6.70;2.45;;;10.50;99.90;;;;;;5088242;28;20017;-63
2023/04/24 11:13:59;;;;;;;7.45;2.53;;;10.60;99.90;;;;;;5088872;28;20448;-63
2023/04/24 11:16:35;;;;;;;8.40;2.53;;;10.70;99.90;;;;;;5087863;28;20056;-63
2023/04/24 11:19:05;;;;;;;6.53;2.50;;;10.70;99.90;;;;;;5088782;28;20027;-63
2023/04/24 11:21:38;;;;;;;6.63;2.50;;;10.70;99.90;;;;;;5087990;28;20024;-63
2023/04/24 11:24:23;;;;;;;5.57;2.33;;;10.90;99.90;;;;;;5087820;28;20085;-64
2023/04/24 11:26:52;;;;;;;11.88;3.25;;;11.00;99.90;;;;;;5086881;28;20103;-63
2023/04/24 11:29:20;;;;;;;7.75;2.80;;;11.00;99.90;;;;;;5087741;28;20062;-63
2023/04/24 11:31:51;;;;;;;5.35;2.20;;;11.00;99.90;;;;;;5086863;28;20123;-64
2023/04/24 11:34:18;;;;;;;5.27;2.33;;;11.20;99.90;;;;;;5088789;28;20082;-63
2023/04/24 11:36:47;;;;;;;7.40;2.05;;;11.30;99.90;;;;;;5087331;28;20357;-63
2023/04/24 11:39:14;;;;;;;4.97;1.85;;;11.50;99.90;;;;;;5088346;28;20042;-63
2023/04/24 11:41:40;;;;;;;9.68;1.73;;;11.50;99.90;;;;;;5087727;28;20135;-64
2023/04/24 11:44:09;;;;;;;3.58;1.42;;;11.40;99.90;;;;;;5087629;28;20468;-63
2023/04/24 11:46:37;;;;;;;3.28;1.90;;;11.30;99.90;;;;;;5087560;28;20050;-63
2023/04/24 11:49:03;;;;;;;2.97;1.48;;;11.20;99.90;;;;;;5088203;28;20020;-63
2023/04/24 11:51:28;;;;;;;3.78;1.63;;;11.00;99.90;;;;;;5087041;28;20142;-63
2023/04/24 11:53:55;;;;;;;3.15;1.25;;;10.80;99.90;;;;;;5086676;28;20032;-63
2023/04/24 11:56:24;;;;;;;4.75;1.40;;;10.60;99.90;;;;;;5087277;28;20028;-62
2023/04/24 11:58:53;;;;;;;2.70;1.40;;;10.50;99.90;;;;;;5086956;28;20476;-63
2023/04/24 12:01:20;;;;;;;1.23;0.90;;;10.40;99.90;;;;;;5087813;28;20427;-63
2023/04/24 12:03:53;;;;;;;6.78;1.55;;;10.30;99.90;;;;;;5091800;28;20547;-63
2023/04/24 12:06:19;;;;;;;2.13;1.13;;;10.20;99.90;;;;;;5104141;28;20151;-63
2023/04/24 12:08:48;;;;;;;2.53;1.17;;;10.10;99.90;;;;;;5105571;28;20115;-63
2023/04/24 12:11:16;;;;;;;1.80;1.20;;;10.20;99.90;;;;;;5087408;28;20012;-63
2023/04/24 12:13:41;;;;;;;7.22;1.55;;;10.20;99.90;;;;;;5088075;28;20484;-63
2023/04/24 12:16:07;;;;;;;3.05;1.50;;;10.20;99.90;;;;;;5081772;28;20021;-63
2023/04/24 12:18:33;;;;;;;8.38;1.80;;;10.20;99.90;;;;;;5073103;28;20099;-63
2023/04/24 12:21:21;;;;;;;2.90;1.52;;;10.20;99.90;;;;;;5073666;28;20017;-63
2023/04/24 12:23:48;;;;;;;6.15;1.67;;;10.10;99.90;;;;;;5073856;28;20031;-63
2023/04/24 12:26:22;;;;;;;5.18;1.33;;;10.00;99.90;;;;;;5084074;28;20137;-64
2023/04/24 12:28:49;;;;;;;5.03;1.63;;;10.00;99.90;;;;;;5093965;28;20043;-64
2023/04/24 12:31:16;;;;;;;5.50;1.45;;;10.20;99.90;;;;;;5089726;28;20452;-63
2023/04/24 12:33:43;;;;;;;1.95;1.20;;;10.30;99.90;;;;;;5080614;28;20103;-63
2023/04/24 12:36:12;;;;;;;3.35;1.40;;;10.60;99.90;;;;;;5073209;28;20012;-64
2023/04/24 12:38:41;;;;;;;2.45;1.13;;;10.80;99.90;;;;;;5073567;28;20032;-63
2023/04/24 12:41:09;;;;;;;2.83;1.67;;;11.00;99.90;;;;;;5071830;28;20035;-64
2023/04/24 12:43:35;;;;;;;4.32;1.17;;;11.10;99.90;;;;;;5073132;28;20085;-63
2023/04/24 12:46:01;;;;;;;3.90;1.30;;;11.00;99.90;;;;;;5073489;28;20040;-63
2023/04/24 12:48:28;;;;;;;2.22;1.33;;;10.90;99.90;;;;;;5079830;28;20029;-64
2023/04/24 12:50:55;;;;;;;4.15;1.52;;;10.80;99.90;;;;;;5077712;28;20068;-63
2023/04/24 12:53:20;;;;;;;4.88;1.60;;;10.80;99.90;;;;;;5073353;28;20060;-64
2023/04/24 12:55:52;;;;;;;2.55;1.08;;;11.00;99.90;;;;;;5088489;28;20466;-63
2023/04/24 12:58:18;;;;;;;;;;;11.10;99.90;;;;;;5084485;28;20021;-65
2023/04/24 13:00:45;;;;;;;1.88;1.10;;;11.20;99.90;;;;;;5074354;28;19947;-64
2023/04/24 13:03:11;;;;;;;4.88;1.63;;;11.20;99.90;;;;;;5073095;28;20024;-65
2023/04/24 13:05:37;;;;;;;5.07;1.30;;;11.10;99.90;;;;;;5071259;28;20071;-63
2023/04/24 13:08:02;;;;;;;1.42;1.05;;;11.00;99.90;;;;;;5070914;28;20445;-63
2023/04/24 13:10:28;;;;;;;6.38;1.40;;;10.80;99.90;;;;;;5072712;28;20384;-63
2023/04/24 13:12:54;;;;;;;2.20;1.00;;;10.70;99.90;;;;;;5066171;28;20029;-63
2023/04/24 13:15:19;;;;;;;3.50;1.08;;;10.60;99.90;;;;;;5078331;28;20032;-63
2023/04/24 13:17:45;;;;;;;3.70;0.88;;;10.50;99.90;;;;;;5093082;28;20048;-63
2023/04/24 13:20:11;;;;;;;2.08;1.08;;;10.50;99.90;;;;;;5073383;28;20439;-62
2023/04/24 13:22:37;;;;;;;1.95;1.00;;;10.40;99.90;;;;;;5071091;28;20111;-63
2023/04/24 13:25:03;;;;;;;2.40;1.13;;;10.40;99.90;;;;;;5073190;28;20112;-63
2023/04/24 13:27:29;;;;;;;4.55;1.17;;;10.40;99.90;;;;;;5072227;28;20016;-62
2023/04/24 13:29:54;;;;;;;4.60;1.30;;;10.50;99.90;;;;;;5071340;28;20039;-62
2023/04/24 13:32:20;;;;;;;2.03;1.00;;;10.50;99.90;;;;;;5073109;28;20457;-63
2023/04/24 13:34:46;;;;;;;4.05;1.20;;;10.60;99.90;;;;;;5073061;28;20095;-63
2023/04/24 13:37:11;;;;;;;3.80;1.30;;;10.70;99.90;;;;;;5072087;28;20032;-63
2023/04/24 13:39:37;;;;;;;3.33;1.10;;;10.90;99.90;;;;;;5069542;28;20029;-63
2023/04/24 13:42:03;;;;;;;3.80;1.25;;;11.00;99.90;;;;;;5073304;28;20035;-63
2023/04/24 13:44:28;;;;;;;4.53;1.33;;;11.00;99.90;;;;;;5070314;28;20486;-61
2023/04/24 13:46:56;;;;;;;3.53;1.10;;;11.10;99.90;;;;;;5072575;28;20376;-63
2023/04/24 13:49:25;;;;;;;5.53;1.65;;;11.10;99.90;;;;;;5070531;28;20013;-63
2023/04/24 13:51:51;;;;;;;6.22;1.50;;;11.10;99.90;;;;;;5070012;28;20036;-63
2023/04/24 13:54:17;;;;;;;1.92;1.38;;;11.10;99.90;;;;;;5072519;28;20035;-63
2023/04/24 13:56:42;;;;;;;5.28;1.50;;;11.00;99.90;;;;;;5071969;28;20028;-63
2023/04/24 13:59:09;;;;;;;4.60;1.48;;;10.90;99.90;;;;;;5071588;28;20372;-63
2023/04/24 14:01:35;;;;;;;7.28;1.70;;;10.60;99.90;;;;;;5067417;28;20043;-63
2023/04/24 14:04:01;;;;;;;4.05;1.60;;;10.20;99.90;;;;;;5051758;28;20021;-64
2023/04/24 14:06:26;;;;;;;4.03;1.70;;;9.90;99.90;;;;;;5051696;28;20049;-63
2023/04/24 14:08:52;;;;;;;7.00;1.98;;;9.60;99.90;;;;;;5051130;28;20366;-63
2023/04/24 14:11:18;;;;;;;8.35;2.13;;;9.40;99.90;;;;;;5062436;28;20032;-63
2023/04/24 14:13:45;;;;;;;10.95;2.30;;;9.40;99.90;;;;;;5070573;28;20469;-63
2023/04/24 14:16:11;;;;;;;8.88;3.00;;;9.50;99.90;;;;;;5066909;28;20086;-63
2023/04/24 14:18:37;;;;;;;6.38;2.15;;;9.70;99.90;;;;;;5071213;28;20107;-63
2023/04/24 14:21:03;;;;;;;6.60;2.35;;;10.00;99.90;;;;;;5072486;28;20113;-64
2023/04/24 14:23:29;;;;;;;6.47;1.90;;;10.10;99.90;;;;;;5052582;28;20385;-64
2023/04/24 14:25:55;;;;;;;6.82;2.55;;;10.30;99.90;;;;;;5056481;28;20131;-63
2023/04/24 14:28:22;;;;;;;6.32;1.95;;;10.40;99.90;;;;;;5071641;28;20028;-64
2023/04/24 14:30:48;;;;;;;9.95;2.05;;;10.60;99.90;;;;;;5070491;28;20119;-63
2023/04/24 14:33:14;;;;;;;7.28;2.30;;;10.70;99.90;;;;;;5070713;28;20119;-63
2023/04/24 14:35:42;;;;;;;7.13;1.73;;;10.70;99.90;;;;;;5071174;28;20031;-63
2023/04/24 14:38:07;;;;;;;9.02;2.40;;;10.90;99.90;;;;;;5070428;28;20012;-63
2023/04/24 14:40:33;;;;;;;7.55;2.00;;;11.00;99.90;;;;;;5058556;28;20036;-64
2023/04/24 14:42:59;;;;;;;6.63;1.77;;;11.00;99.90;;;;;;5070117;28;20024;-64
2023/04/24 14:45:26;;;;;;;6.85;2.33;;;11.20;99.90;;;;;;5071199;28;20143;-64
2023/04/24 14:47:51;;;;;;;7.43;2.10;;;11.30;99.90;;;;;;5070918;28;20009;-63
2023/04/24 14:50:17;;;;;;;8.77;1.73;;;11.50;99.90;;;;;;5071860;28;20036;-63
2023/04/24 14:52:43;;;;;;;6.65;2.30;;;11.60;99.90;;;;;;5071746;28;20020;-64
2023/04/24 14:55:08;;;;;;;5.50;2.38;;;11.70;99.90;;;;;;5065605;28;20089;-63
2023/04/24 14:57:35;;;;;;;10.05;2.10;;;12.00;99.90;;;;;;5051236;28;20013;-63
2023/04/24 15:00:03;;;;;;;6.00;2.13;;;12.30;99.90;;;;;;5052334;28;20021;-63
2023/04/24 15:02:29;;;;;;;4.95;2.00;;;12.20;99.90;;;;;;5050981;28;20021;-65
2023/04/24 15:04:54;;;;;;;6.90;2.60;;;12.20;99.90;;;;;;5050087;28;20056;-66
2023/04/24 15:07:20;;;;;;;6.47;2.08;;;12.00;99.90;;;;;;5050787;28;20025;-63
2023/04/24 15:09:47;;;;;;;9.20;2.30;;;11.80;99.90;;;;;;5051568;28;20461;-62
2023/04/24 15:12:13;;;;;;;8.43;2.45;;;11.60;99.90;;;;;;5069805;28;20024;-65
2023/04/24 15:14:38;;;;;;;7.47;2.20;;;11.50;99.90;;;;;;5069042;28;20066;-65
2023/04/24 15:17:04;;;;;;;9.50;2.58;;;11.50;99.90;;;;;;5071037;28;20376;-63
2023/04/24 15:19:29;;;;;;;12.65;2.65;;;11.50;99.90;;;;;;5071675;28;20028;-64
2023/04/24 15:21:55;;;;;;;10.48;2.42;;;11.60;99.90;;;;;;5058901;28;20079;-63
2023/04/24 15:24:21;;;;;;;7.70;2.53;;;11.50;99.90;;;;;;5051181;28;20021;-63
2023/04/24 15:26:46;;;;;;;5.93;2.72;;;11.50;99.90;;;;;;5051156;28;20086;-63
2023/04/24 15:29:12;;;;;;;8.88;2.58;;;11.50;99.90;;;;;;5050401;28;20017;-63
2023/04/24 15:31:39;;;;;;;10.13;2.50;;;11.50;99.90;;;;;;5052035;28;20036;-63
2023/04/24 15:34:05;;;;;;;7.78;2.45;;;11.50;99.90;;;;;;5050227;28;20032;-63
2023/04/24 15:36:32;;;;;;;8.85;2.45;;;11.40;99.80;;;;;;5049714;28;20374;-63
2023/04/24 15:38:57;;;;;;;11.55;2.60;;;11.30;99.90;;;;;;5054834;28;20028;-62
2023/04/24 15:41:23;;;;;;;8.95;2.65;;;11.20;99.90;;;;;;5067682;28;20025;-63
2023/04/24 15:43:48;;;;;;;8.95;3.13;;;11.10;99.90;;;;;;5059920;28;20055;-64
2023/04/24 15:46:15;;;;;;;8.80;2.58;;;11.00;99.90;;;;;;5050599;28;20041;-64
2023/04/24 15:48:42;;;;;;;6.38;2.55;;;11.20;99.90;;;;;;5062636;28;20396;-63
2023/04/24 15:51:08;;;;;;;6.38;1.90;;;11.50;99.60;;;;;;5058787;28;20024;-64
2023/04/24 15:53:33;;;;;;;8.27;2.38;;;11.90;99.90;;;;;;5072155;28;20353;-61
2023/04/24 15:55:59;;;;;;;7.72;2.40;;;12.50;98.80;;;;;;5072409;28;20042;-63
2023/04/24 15:58:25;;;;;;;5.88;2.17;;;12.50;97.60;;;;;;5073654;28;20056;-62
2023/04/24 16:00:50;;;;;;;8.50;2.47;;;12.10;97.50;;;;;;5069060;28;20040;-63
2023/04/24 16:03:16;;;;;;;7.07;2.72;;;11.60;98.20;;;;;;5054643;28;20036;-62
2023/04/24 16:05:41;;;;;;;8.32;2.63;;;11.30;99.60;;;;;;5067452;28;20056;-62
2023/04/24 16:08:07;;;;;;;7.57;2.92;;;10.80;99.90;;;;;;5074056;28;20468;-62
2023/04/24 16:10:33;;;;;;;8.55;2.00;;;10.50;99.90;;;;;;5081322;28;20027;-63
2023/04/24 16:13:03;;;;;;;5.70;2.63;;;10.10;99.90;;;;;;5089668;28;20012;-62
2023/04/24 16:15:29;;;;;;;4.30;2.22;;;9.70;99.90;;;;;;5107093;28;20119;-62
2023/04/24 16:17:55;;;;;;;7.93;2.15;;;9.70;99.90;;;;;;5113632;28;20420;-63
2023/04/24 16:20:21;;;;;;;7.35;2.30;;;10.50;99.90;;;;;;5114380;28;20498;-64
2023/04/24 16:22:46;;;;;;;7.03;2.40;;;11.30;99.90;;;;;;5114828;28;20027;-62
2023/04/24 16:25:12;;;;;;;7.07;2.35;;;11.90;99.90;;;;;;5076530;28;20064;-64
2023/04/24 16:27:38;;;;;;;7.85;2.65;;;12.30;99.90;;;;;;5073248;28;20104;-61
2023/04/24 16:30:04;;;;;;;6.25;2.33;;;12.80;99.90;;;;;;5073712;28;20144;-63
2023/04/24 16:32:30;;;;;;;8.68;3.10;;;13.40;98.10;;;;;;5072741;28;20013;-62
2023/04/24 16:34:55;;;;;;;5.97;2.00;;;13.90;97.00;;;;;;5073810;28;20031;-63
2023/04/24 16:37:21;;;;;;;4.93;2.00;;;14.20;92.50;;;;;;5073182;28;20056;-63
2023/04/24 16:39:47;;;;;;;8.05;2.45;;;14.40;91.20;;;;;;5087363;28;20160;-62
2023/04/24 16:42:14;;;;;;;8.50;2.20;;;14.40;86.80;;;;;;5094092;28;20395;-62
2023/04/24 16:44:41;;;;;;;8.00;2.40;;;14.50;86.90;;;;;;5093401;28;20030;-63
2023/04/24 16:47:07;;;;;;;8.00;2.33;;;14.70;83.40;;;;;;5090411;28;20027;-61
2023/04/24 16:49:33;;;;;;;10.07;2.70;;;14.90;80.50;;;;;;5093558;28;20020;-62
2023/04/24 16:51:59;;;;;;;8.48;2.80;;;14.90;78.50;;;;;;5075600;28;20024;-62
2023/04/24 16:54:25;;;;;;;10.93;3.05;;;15.00;78.30;;;;;;5092923;28;20507;-63
2023/04/24 16:56:52;;;;;;;8.02;2.70;;;15.10;77.20;;;;;;5091168;28;20028;-64
2023/04/24 16:59:18;;;;;;;10.70;2.88;;;14.50;77.50;;;;;;5076032;28;20028;-62
2023/04/24 17:01:44;;;;;;;8.88;2.67;;;13.80;80.50;;;;;;5079456;28;20031;-63
2023/04/24 17:04:10;;;;;;;6.05;2.50;;;13.40;82.30;;;;;;5093449;28;20024;-62
2023/04/24 17:06:35;;;;;;;11.88;2.70;;;13.60;81.90;;;;;;5092461;28;20418;-62
2023/04/24 17:09:02;;;;;;;6.90;2.53;;;13.60;79.60;;;;;;5108431;28;20020;-63
2023/04/24 17:11:28;;;;;;;5.80;2.60;;;13.20;82.30;;;;;;5093130;28;20476;-63
2023/04/24 17:13:53;;;;;;;8.50;2.28;;;13.30;83.30;;;;;;5079533;28;20059;-63
2023/04/24 17:16:19;;;;;;;6.95;3.10;;;13.60;80.90;;;;;;5072966;28;20030;-63
2023/04/24 17:18:45;;;;;;;8.88;2.67;;;13.10;81.60;;;;;;5072786;28;20021;-63
2023/04/24 17:21:10;;;;;;;7.57;2.78;;;12.50;83.60;;;;;;5079408;28;20020;-65
2023/04/24 17:23:36;;;;;;;12.05;4.22;;;12.00;86.80;;;;;;5108286;28;20024;-62
2023/04/24 17:26:02;;;;;;;11.07;2.92;;;11.70;88.60;;;;;;5090779;28;20482;-62
2023/04/24 17:28:32;;;;;;;6.53;2.88;;;11.40;90.00;;;;;;5092738;28;20107;-68
2023/04/24 17:30:58;;;;;;;9.75;3.03;;;11.10;90.80;;;;;;5093045;28;20100;-62
2023/04/24 17:33:29;;;;;;;11.75;3.10;;;11.00;91.10;;;;;;5082257;28;20028;-61
2023/04/24 17:35:56;;;;;;;8.77;2.30;;;11.00;90.70;;;;;;5071301;28;20067;-60
2023/04/24 17:38:21;;;;;;;7.43;3.15;;;11.10;90.90;;;;;;5083713;28;20087;-61
2023/04/24 17:40:51;;;;;;;9.23;2.78;;;11.60;90.20;;;;;;5092382;28;20140;-61
2023/04/24 17:43:18;;;;;;;7.60;2.95;;;11.70;90.20;;;;;;5087769;28;20028;-64
2023/04/24 17:45:45;;;;;;;10.55;2.90;;;12.10;89.80;;;;;;5088383;28;20032;-60
2023/04/24 17:48:11;;;;;;;9.85;2.83;;;12.10;87.90;;;;;;5093053;28;20013;-61
2023/04/24 17:50:37;;;;;;;10.48;3.03;;;11.90;88.70;;;;;;5090744;28;20016;-61
2023/04/24 17:53:03;;;;;;;8.85;2.60;;;12.00;88.60;;;;;;5090831;28;20476;-60
2023/04/24 17:55:29;;;;;;;5.88;2.67;;;11.80;87.60;;;;;;5090520;28;20065;-62
2023/04/24 17:57:54;;;;;;;6.75;2.80;;;11.60;88.70;;;;;;5085859;28;20028;-60
2023/04/24 18:00:20;;;;;;;9.75;2.60;;;11.50;89.80;;;;;;5072395;28;20484;-61
2023/04/24 18:02:46;;;;;;;13.77;3.42;;;11.10;90.50;;;;;;5088335;28;20031;-61
2023/04/24 18:05:11;;;;;;;10.52;2.92;;;10.80;91.40;;;;;;5090414;28;20403;-60
2023/04/24 18:07:38;;;;;;;8.77;2.67;;;10.60;92.40;;;;;;5090176;28;20020;-61
2023/04/24 18:10:03;;;;;;;9.68;3.28;;;10.40;93.00;;;;;;5089527;28;20027;-61
2023/04/24 18:12:30;;;;;;;9.90;3.13;;;10.30;93.60;;;;;;5090734;28;20024;-60
2023/04/24 18:14:55;;;;;;;10.00;3.47;;;10.20;94.40;;;;;;5089239;28;20032;-61
2023/04/24 18:17:21;;;;;;;13.23;3.40;;;10.10;95.10;;;;;;5089838;28;20227;-61
2023/04/24 18:19:46;;;;;;;8.02;3.22;;;9.90;95.90;;;;;;5090233;28;20031;-61
2023/04/24 18:22:12;;;;;;;10.20;2.92;;;9.70;97.00;;;;;;5089834;28;20012;-62
2023/04/24 18:24:38;;;;;;;14.07;3.72;;;9.60;98.00;;;;;;5089326;28;20174;-61
2023/04/24 18:27:03;;;;;;;11.05;3.75;;;9.50;99.00;;;;;;5088891;28;20020;-62
2023/04/24 18:29:29;;;;;;;9.93;3.03;;;9.50;99.90;;;;;;5096657;28;20012;-61
2023/04/24 18:31:54;;;;;;;11.82;3.35;;;9.40;99.90;;;;;;5071833;28;20020;-61
2023/04/24 18:34:20;;;;;;;10.07;3.38;;;9.40;99.90;;;;;;5090002;28;20035;-61
2023/04/24 18:36:45;;;;;;;8.88;3.17;;;9.40;99.90;;;;;;5089507;28;20027;-63
2023/04/24 18:39:12;;;;;;;12.18;3.78;;;9.30;99.90;;;;;;5090604;28;20055;-61
2023/04/24 18:41:38;;;;;;;9.95;3.65;;;9.30;99.90;;;;;;5090686;28;20020;-61
2023/04/24 18:44:03;;;;;;;8.25;3.20;;;9.30;99.90;;;;;;5105478;28;20027;-61
2023/04/24 18:46:30;;;;;;;15.88;4.93;;;9.30;99.90;;;;;;5089465;28;20040;-61
2023/04/24 18:48:55;;;;;;;12.57;4.03;;;9.30;99.90;;;;;;5090002;28;20024;-63
2023/04/24 18:51:21;;;;;;;9.32;3.55;;;9.20;99.90;;;;;;5089836;28;20376;-61
2023/04/24 18:53:47;;;;;;;15.40;3.60;;;9.20;99.90;;;;;;5090210;28;20070;-62
2023/04/24 18:56:12;;;;;;;7.88;3.10;;;9.10;99.90;;;;;;5089745;28;20085;-63
2023/04/24 18:58:43;;;;;;;11.77;3.42;;;9.00;99.90;;;;;;5104772;28;20023;-61
2023/04/24 19:01:08;;;;;;;9.87;3.43;;;9.00;99.90;;;;;;5089476;28;20042;-61
2023/04/24 19:03:34;;;;;;;12.18;3.33;;;8.90;99.90;;;;;;5090370;28;20349;-61
2023/04/24 19:06:00;;;;;;;13.38;3.20;;;8.90;99.90;;;;;;5089064;28;20056;-62
2023/04/24 19:08:25;;;;;;;10.05;4.00;;;8.90;99.90;;;;;;5105322;28;20028;-60
2023/04/24 19:10:51;;;;;;;14.38;3.45;;;8.90;99.90;;;;;;5089878;28;20479;-62
2023/04/24 19:13:16;;;;;;;7.90;3.25;;;8.90;99.90;;;;;;5089828;28;20032;-62
2023/04/24 19:15:42;;;;;;;11.75;3.92;;;8.80;99.90;;;;;;5090119;28;20519;-62
2023/04/24 19:18:08;;;;;;;7.15;2.90;;;8.80;99.90;;;;;;5089851;28;20066;-61
2023/04/24 19:20:33;;;;;;;8.02;3.05;;;8.80;99.90;;;;;;5089199;28;20028;-63
2023/04/24 19:22:59;;;;;;;11.77;3.22;;;8.80;99.90;;;;;;5071930;28;20024;-61
2023/04/24 19:25:24;;;;;;;5.88;2.80;;;8.80;99.90;;;;;;5089411;28;20032;-62
2023/04/24 19:27:50;;;;;;;10.10;3.88;;;8.70;99.90;;;;;;5088010;28;20525;-61
2023/04/24 19:30:16;;;;;;;7.60;2.60;;;8.70;99.90;;;;;;5077070;28;20052;-62
2023/04/24 19:32:41;;;;;;;9.15;2.88;;;8.70;99.90;;;;;;5094212;28;20024;-62
